Time;durP1;ratioP1;P1;durP2;ratioP2;P2;SDS_P1;SDS_P2;PMS_P1;PMS_P2;Temp;Humidity;BMP_temperature;BMP_pressure;BME280_temperature;BME280_humidity;BME280_pressure;Samples;Min_cycle;Max_cycle;Signal;HPM_P1;HPM_P2
2023/08/01 09:50:43;;;;;;;0.20;0.20;;;24.40;99.90;;;;;;4939383;28;20205;-63
2023/08/01 09:53:10;;;;;;;5.57;2.53;;;22.20;99.90;;;;;;4962360;28;20225;-62
2023/08/01 09:55:39;;;;;;;0.10;0.10;;;22.70;99.90;;;;;;4967870;28;20213;-62
2023/08/01 09:58:09;;;;;;;0.10;0.10;;;24.50;99.90;;;;;;4965071;28;20214;-63
2023/08/01 10:00:36;;;;;;;0.10;0.10;;;27.60;99.90;;;;;;4970240;28;20209;-63
2023/08/01 10:03:04;;;;;;;0.10;0.10;;;29.90;99.90;;;;;;4982564;28;20555;-63
2023/08/01 10:05:34;;;;;;;0.10;0.10;;;30.80;99.90;;;;;;4980174;28;20347;-63
2023/08/01 10:08:02;;;;;;;0.75;0.75;;;27.30;99.90;;;;;;4975353;28;20208;-63
2023/08/01 10:10:29;;;;;;;0.10;0.10;;;27.50;99.90;;;;;;4959022;28;20656;-63
2023/08/01 10:12:57;;;;;;;1.20;1.10;;;26.20;99.90;;;;;;4979863;28;20201;-63
2023/08/01 10:15:27;;;;;;;0.10;0.10;;;24.50;99.90;;;;;;4971549;28;20212;-63
2023/08/01 10:17:54;;;;;;;0.17;0.17;;;23.50;99.90;;;;;;4985316;28;20642;-62
2023/08/01 10:20:22;;;;;;;0.20;0.20;;;22.60;99.90;;;;;;4987865;28;20229;-62
2023/08/01 10:22:50;;;;;;;0.10;0.10;;;23.10;99.90;;;;;;4986578;28;20733;-63
2023/08/01 10:25:19;;;;;;;0.13;0.13;;;25.00;99.90;;;;;;4983806;28;20224;-62
2023/08/01 10:28:00;;;;;;;0.10;0.10;;;25.20;99.90;;;;;;4963448;28;20212;-63
2023/08/01 10:30:29;;;;;;;0.10;0.10;;;26.50;99.90;;;;;;4966261;28;20486;-63
2023/08/01 10:32:58;;;;;;;0.10;0.10;;;25.90;99.90;;;;;;4985784;28;20505;-63
2023/08/01 10:35:38;;;;;;;0.60;0.60;;;25.10;99.90;;;;;;4984962;28;20203;-66
2023/08/01 10:38:12;;;;;;;0.10;0.10;;;24.80;99.90;;;;;;4986322;28;20283;-62
2023/08/01 10:40:43;;;;;;;0.20;0.20;;;24.00;99.90;;;;;;4965823;28;20634;-66
2023/08/01 10:43:24;;;;;;;0.13;0.13;;;23.40;99.90;;;;;;4984370;28;20209;-66
2023/08/01 10:46:03;;;;;;;0.20;0.20;;;23.10;99.90;;;;;;4985119;28;20217;-67
2023/08/01 10:48:31;;;;;;;0.20;0.20;;;22.40;99.90;;;;;;4989104;28;20712;-66
2023/08/01 10:50:58;;;;;;;0.10;0.10;;;22.20;99.90;;;;;;4986722;28;20253;-62
2023/08/01 10:53:25;;;;;;;0.10;0.10;;;24.10;99.90;;;;;;4987378;28;20692;-62
2023/08/01 10:55:52;;;;;;;0.10;0.10;;;25.60;99.90;;;;;;4988988;28;20200;-63
2023/08/01 10:58:19;;;;;;;0.65;0.65;;;25.00;99.90;;;;;;5006371;28;20196;-62
2023/08/01 11:00:56;;;;;;;0.20;0.20;;;23.60;99.90;;;;;;5005430;28;20270;-63
2023/08/01 11:03:34;;;;;;;0.13;0.13;;;23.00;99.90;;;;;;4968469;28;20225;-63
2023/08/01 11:06:03;;;;;;;0.10;0.10;;;22.80;99.90;;;;;;5004970;28;20202;-63
2023/08/01 11:08:39;;;;;;;0.10;0.10;;;23.00;99.90;;;;;;5005671;28;20630;-64
2023/08/01 11:11:10;;;;;;;0.10;0.10;;;24.90;99.90;;;;;;4984606;28;20204;-63
2023/08/01 11:13:40;;;;;;;0.10;0.10;;;26.90;99.90;;;;;;4986744;28;20192;-63
2023/08/01 11:16:07;;;;;;;0.10;0.10;;;27.00;99.90;;;;;;5003783;28;20674;-66
2023/08/01 11:18:44;;;;;;;4.32;2.65;;;25.20;99.90;;;;;;5001758;28;20292;-63
2023/08/01 11:21:11;;;;;;;5.05;2.58;;;25.20;99.90;;;;;;5003087;28;20209;-63
2023/08/01 11:23:38;;;;;;;4.07;2.78;;;24.50;99.90;;;;;;5001964;28;20204;-63
2023/08/01 11:26:08;;;;;;;6.55;2.72;;;24.00;99.90;;;;;;4982552;28;21892;-63
2023/08/01 11:28:36;;;;;;;4.35;2.40;;;24.60;99.90;;;;;;4987788;28;20189;-64
2023/08/01 11:31:21;;;;;;;3.95;2.50;;;24.40;99.90;;;;;;5004699;28;20292;-65
2023/08/01 11:33:58;;;;;;;8.35;2.45;;;23.40;99.90;;;;;;5006504;28;20192;-63
2023/08/01 11:36:29;;;;;;;4.90;2.63;;;22.70;99.90;;;;;;4988764;28;20673;-63
2023/08/01 11:38:58;;;;;;;2.90;2.35;;;22.00;99.90;;;;;;5007720;28;20224;-66
2023/08/01 11:41:27;;;;;;;5.70;2.03;;;22.80;99.90;;;;;;5005670;28;20201;-63
2023/08/01 11:43:57;;;;;;;4.90;1.90;;;24.60;99.90;;;;;;4987502;28;20208;-63
2023/08/01 11:46:31;;;;;;;3.08;1.70;;;26.60;99.90;;;;;;5004251;28;20563;-67
2023/08/01 11:49:00;;;;;;;2.90;1.27;;;27.50;99.90;;;;;;4982159;28;20331;-68
2023/08/01 11:51:28;;;;;;;2.17;1.30;;;28.00;99.90;;;;;;4985116;28;20534;-68
2023/08/01 11:54:03;;;;;;;2.00;1.30;;;28.30;99.90;;;;;;4997156;28;20686;-64
2023/08/01 11:56:31;;;;;;;3.42;1.45;;;29.00;99.90;;;;;;4981456;28;20194;-65
2023/08/01 11:58:58;;;;;;;3.38;1.88;;;26.60;99.90;;;;;;5003326;28;20879;-64
2023/08/01 12:01:26;;;;;;;5.40;1.83;;;25.00;99.90;;;;;;4985433;28;20648;-62
2023/08/01 12:03:54;;;;;;;2.65;1.98;;;24.80;99.90;;;;;;4980082;28;20756;-62
2023/08/01 12:06:23;;;;;;;2.20;1.70;;;22.50;99.90;;;;;;4984825;28;20695;-62
2023/08/01 12:08:53;;;;;;;4.03;1.90;;;23.00;99.90;;;;;;5001172;28;20569;-62
2023/08/01 12:11:29;;;;;;;4.28;1.92;;;23.60;99.90;;;;;;4982313;28;20240;-62
2023/08/01 12:14:10;;;;;;;3.10;2.25;;;24.50;99.90;;;;;;4968848;28;20811;-62
2023/08/01 12:16:44;;;;;;;6.50;3.65;;;25.00;99.90;;;;;;4997565;28;20444;-62
2023/08/01 12:19:20;;;;;;;9.13;3.00;;;24.90;99.90;;;;;;4997934;28;20205;-62
2023/08/01 12:21:48;;;;;;;3.40;2.70;;;23.70;99.90;;;;;;4972880;28;20202;-62
2023/08/01 12:24:15;;;;;;;4.25;2.80;;;23.50;99.90;;;;;;4980902;28;20200;-62
2023/08/01 12:26:42;;;;;;;4.35;3.38;;;23.30;99.90;;;;;;4998428;28;20216;-62
2023/08/01 12:29:10;;;;;;;4.30;2.80;;;23.50;99.90;;;;;;4986518;28;20197;-62
2023/08/01 12:31:37;;;;;;;2.88;2.55;;;23.90;99.90;;;;;;4975898;28;20320;-62
2023/08/01 12:34:04;;;;;;;3.78;2.72;;;23.20;99.90;;;;;;4980537;28;20665;-62
2023/08/01 12:36:31;;;;;;;7.05;3.90;;;23.40;99.90;;;;;;4982512;28;20621;-62
2023/08/01 12:38:58;;;;;;;4.63;2.63;;;23.20;99.90;;;;;;4979746;28;20937;-62
2023/08/01 12:41:25;;;;;;;3.58;2.42;;;23.40;99.90;;;;;;4972516;28;20656;-62
2023/08/01 12:43:52;;;;;;;3.30;2.40;;;22.30;99.90;;;;;;4979535;28;20197;-62
2023/08/01 12:46:19;;;;;;;3.97;2.53;;;22.70;99.90;;;;;;4981848;28;20419;-62
2023/08/01 12:48:47;;;;;;;4.50;2.70;;;24.10;99.90;;;;;;4974853;28;20826;-62
2023/08/01 12:51:14;;;;;;;5.95;3.10;;;24.30;99.90;;;;;;4985559;28;20201;-62
2023/08/01 12:53:42;;;;;;;5.15;2.30;;;23.70;99.90;;;;;;4986370;28;20669;-62
2023/08/01 12:56:12;;;;;;;3.55;2.60;;;23.80;99.90;;;;;;4966612;28;20205;-62
2023/08/01 12:58:39;;;;;;;3.70;2.30;;;23.50;99.90;;;;;;4978559;28;20190;-61
2023/08/01 13:01:06;;;;;;;2.70;2.33;;;23.10;99.90;;;;;;4966681;28;20213;-62
2023/08/01 13:03:33;;;;;;;6.53;3.33;;;23.30;99.90;;;;;;4982062;28;20244;-62
2023/08/01 13:06:00;;;;;;;5.05;2.28;;;23.00;99.90;;;;;;4986155;28;20848;-62
2023/08/01 13:08:29;;;;;;;3.13;2.25;;;22.70;99.90;;;;;;4979444;28;20208;-61
2023/08/01 13:10:59;;;;;;;3.88;2.70;;;22.50;99.90;;;;;;4981789;28;20227;-62
2023/08/01 13:13:26;;;;;;;5.07;2.03;;;22.20;99.90;;;;;;4963208;28;20207;-61
2023/08/01 13:15:55;;;;;;;4.18;2.10;;;21.90;99.90;;;;;;4983358;28;20235;-62
2023/08/01 13:18:22;;;;;;;2.85;1.98;;;22.80;99.90;;;;;;4978852;28;20204;-62
2023/08/01 13:20:49;;;;;;;2.83;2.03;;;23.20;99.90;;;;;;4985086;28;20763;-61
2023/08/01 13:23:16;;;;;;;4.88;2.22;;;22.90;99.90;;;;;;4983923;28;20455;-64
2023/08/01 13:25:46;;;;;;;3.28;1.90;;;23.10;99.90;;;;;;4968374;28;20604;-61
2023/08/01 13:28:13;;;;;;;4.50;2.33;;;23.30;99.90;;;;;;4970714;28;20204;-61
2023/08/01 13:30:40;;;;;;;4.38;2.03;;;23.40;99.90;;;;;;4984462;28;20209;-66
2023/08/01 13:33:07;;;;;;;3.65;1.70;;;23.80;99.90;;;;;;4982190;28;20905;-66
2023/08/01 13:35:34;;;;;;;2.83;2.08;;;23.60;99.90;;;;;;4981653;28;20198;-68
2023/08/01 13:38:01;;;;;;;5.80;2.15;;;23.10;99.90;;;;;;4986381;28;20213;-67
2023/08/01 13:40:28;;;;;;;6.05;1.95;;;22.90;99.90;;;;;;4970414;28;20231;-67
2023/08/01 13:42:55;;;;;;;3.13;1.90;;;23.30;99.90;;;;;;4986873;28;20671;-66
2023/08/01 13:45:22;;;;;;;5.00;1.95;;;22.60;99.90;;;;;;4989564;28;20201;-67
2023/08/01 13:47:49;;;;;;;3.72;2.08;;;23.10;99.90;;;;;;4985545;28;20204;-66
2023/08/01 13:50:16;;;;;;;4.25;1.95;;;22.90;99.90;;;;;;4991999;28;20239;-67
2023/08/01 13:52:43;;;;;;;3.15;2.03;;;23.10;99.90;;;;;;5009650;28;20203;-63
2023/08/01 13:55:10;;;;;;;3.95;2.00;;;23.10;99.90;;;;;;5004808;28;20205;-66
2023/08/01 13:57:37;;;;;;;5.40;2.20;;;23.60;99.90;;;;;;5010132;28;20192;-65
2023/08/01 14:00:06;;;;;;;4.35;2.13;;;23.70;99.90;;;;;;5005187;28;20237;-65
2023/08/01 14:02:42;;;;;;;4.28;2.72;;;22.70;99.90;;;;;;5008427;28;20271;-68
2023/08/01 14:05:09;;;;;;;3.90;2.00;;;23.20;99.90;;;;;;5005649;28;21087;-66
2023/08/01 14:07:37;;;;;;;2.17;1.95;;;23.10;99.90;;;;;;5007150;28;20197;-68
2023/08/01 14:10:09;;;;;;;6.43;2.10;;;23.10;99.90;;;;;;5007658;28;20204;-66
2023/08/01 14:12:36;;;;;;;4.93;2.10;;;23.10;99.90;;;;;;5008377;28;20205;-66
2023/08/01 14:15:04;;;;;;;3.90;2.05;;;23.00;99.90;;;;;;4987419;28;20215;-64
2023/08/01 14:17:31;;;;;;;3.92;2.53;;;22.70;99.90;;;;;;4989637;28;20215;-67
2023/08/01 14:19:58;;;;;;;9.07;2.95;;;22.60;99.90;;;;;;5009062;28;20271;-63
2023/08/01 14:22:26;;;;;;;2.97;2.08;;;22.50;99.90;;;;;;4989979;28;20208;-63
2023/08/01 14:24:53;;;;;;;4.20;2.17;;;22.60;99.90;;;;;;5006048;28;20267;-63
2023/08/01 14:27:20;;;;;;;5.72;2.92;;;23.00;99.90;;;;;;4986781;28;20552;-64
2023/08/01 14:29:47;;;;;;;3.40;2.15;;;22.90;99.90;;;;;;4985596;28;20201;-63
2023/08/01 14:32:18;;;;;;;4.47;2.58;;;22.30;99.90;;;;;;5001349;28;20199;-65
2023/08/01 14:34:45;;;;;;;4.70;2.20;;;22.70;99.90;;;;;;5005495;28;20197;-68
2023/08/01 14:37:12;;;;;;;3.80;1.98;;;23.10;99.90;;;;;;4973991;28;20215;-70
2023/08/01 14:39:39;;;;;;;4.22;2.20;;;23.00;99.90;;;;;;5004253;28;20755;-64
2023/08/01 14:42:06;;;;;;;4.40;2.25;;;22.70;99.90;;;;;;4988591;28;20212;-64
2023/08/01 14:44:33;;;;;;;3.65;2.00;;;22.50;99.90;;;;;;5007725;28;20512;-65
2023/08/01 14:47:03;;;;;;;3.13;1.95;;;22.70;99.90;;;;;;5005905;28;20571;-68
2023/08/01 14:49:36;;;;;;;4.45;2.28;;;22.50;99.90;;;;;;4986483;28;20228;-61
2023/08/01 14:52:04;;;;;;;1.98;1.77;;;22.40;99.90;;;;;;4985983;28;20201;-62
2023/08/01 14:54:31;;;;;;;3.03;1.88;;;22.20;99.90;;;;;;4989430;28;20316;-61
2023/08/01 14:57:07;;;;;;;3.03;1.92;;;22.20;99.90;;;;;;4990428;28;20272;-65
2023/08/01 14:59:35;;;;;;;2.30;1.92;;;22.40;99.90;;;;;;4984704;28;20209;-65
2023/08/01 15:02:03;;;;;;;3.70;2.30;;;22.70;99.90;;;;;;4987332;28;20209;-65
2023/08/01 15:04:30;;;;;;;2.22;1.77;;;23.00;99.90;;;;;;4985894;28;20225;-65
2023/08/01 15:06:57;;;;;;;4.85;1.80;;;23.20;99.90;;;;;;4984289;28;20253;-64
2023/08/01 15:09:25;;;;;;;6.72;2.20;;;23.60;99.90;;;;;;4985254;28;20213;-63
2023/08/01 15:11:55;;;;;;;4.25;2.40;;;23.70;99.90;;;;;;5002439;28;20277;-62
2023/08/01 15:14:22;;;;;;;4.78;1.98;;;23.30;99.90;;;;;;4986766;28;20336;-63
2023/08/01 15:16:49;;;;;;;4.45;2.22;;;23.30;99.90;;;;;;4982955;28;20210;-62
2023/08/01 15:19:16;;;;;;;2.75;1.80;;;23.40;99.90;;;;;;4983230;28;20267;-62
2023/08/01 15:21:45;;;;;;;3.58;1.70;;;23.40;99.90;;;;;;4986971;28;20666;-61
2023/08/01 15:24:12;;;;;;;2.08;1.80;;;23.30;99.90;;;;;;5001927;28;20703;-61
2023/08/01 15:26:39;;;;;;;5.70;1.95;;;23.20;99.90;;;;;;4986327;28;20534;-61
2023/08/01 15:29:07;;;;;;;1.83;1.65;;;23.30;99.90;;;;;;4982647;28;20205;-62
2023/08/01 15:31:34;;;;;;;4.53;1.98;;;23.40;99.90;;;;;;4998966;28;20621;-62
2023/08/01 15:34:02;;;;;;;3.05;1.65;;;23.20;99.90;;;;;;4966956;28;20201;-61
2023/08/01 15:36:29;;;;;;;3.90;1.95;;;23.10;99.90;;;;;;4983133;28;20666;-61
2023/08/01 15:38:57;;;;;;;2.08;1.80;;;23.40;99.90;;;;;;4984628;28;20256;-61
2023/08/01 15:41:25;;;;;;;2.83;1.90;;;23.50;99.90;;;;;;4986047;28;20291;-61
2023/08/01 15:43:52;;;;;;;4.25;1.90;;;23.10;99.90;;;;;;4982913;28;20205;-61
2023/08/01 15:46:19;;;;;;;3.28;1.40;;;23.20;99.90;;;;;;4986360;28;20194;-61
2023/08/01 15:48:47;;;;;;;5.65;2.00;;;23.20;99.90;;;;;;4987452;28;20361;-63
2023/08/01 15:51:14;;;;;;;7.97;1.95;;;23.30;99.90;;;;;;4986708;28;20827;-62
2023/08/01 15:53:41;;;;;;;2.00;1.52;;;23.20;99.90;;;;;;5001426;28;20211;-62
2023/08/01 15:56:10;;;;;;;2.65;1.77;;;23.10;99.90;;;;;;4992804;28;20275;-62
2023/08/01 15:58:38;;;;;;;3.05;1.58;;;23.40;99.90;;;;;;5005104;28;20280;-61
2023/08/01 16:01:07;;;;;;;3.25;1.80;;;23.40;99.90;;;;;;5000875;28;20263;-63
2023/08/01 16:03:37;;;;;;;2.95;1.98;;;23.00;99.90;;;;;;4999809;28;20307;-62
2023/08/01 16:06:05;;;;;;;2.55;1.52;;;22.90;99.90;;;;;;4999200;28;20193;-62
2023/08/01 16:08:32;;;;;;;2.53;2.05;;;22.90;99.90;;;;;;4983373;28;20210;-61
2023/08/01 16:11:02;;;;;;;7.07;2.55;;;22.80;99.90;;;;;;4983843;28;20204;-62
2023/08/01 16:13:29;;;;;;;4.55;1.92;;;22.90;99.90;;;;;;5001168;28;20596;-61
2023/08/01 16:15:56;;;;;;;3.42;2.05;;;22.90;99.90;;;;;;4999391;28;20281;-61
2023/08/01 16:18:23;;;;;;;4.45;2.72;;;22.80;99.90;;;;;;5006584;28;20524;-65
2023/08/01 16:20:50;;;;;;;5.40;2.38;;;22.90;99.90;;;;;;5004822;28;20915;-62
2023/08/01 16:23:17;;;;;;;4.07;2.13;;;23.00;99.90;;;;;;5003381;28;20284;-61
2023/08/01 16:25:44;;;;;;;6.40;3.17;;;23.00;99.90;;;;;;5006104;28;20193;-65
2023/08/01 16:28:11;;;;;;;5.95;2.92;;;23.10;99.90;;;;;;5007236;28;20205;-62
2023/08/01 16:30:38;;;;;;;7.28;3.25;;;22.80;99.90;;;;;;4984697;28;20196;-62
2023/08/01 16:33:06;;;;;;;4.43;2.40;;;22.80;99.90;;;;;;4987858;28;20696;-62
2023/08/01 16:35:33;;;;;;;2.80;2.00;;;22.70;99.90;;;;;;4987673;28;20200;-62
2023/08/01 16:38:00;;;;;;;2.70;1.73;;;22.90;99.90;;;;;;5005097;28;20341;-62
2023/08/01 16:40:27;;;;;;;5.07;2.10;;;22.90;99.90;;;;;;5005030;28;20212;-62
2023/08/01 16:42:56;;;;;;;3.25;2.05;;;23.00;99.90;;;;;;5007492;28;20189;-63
2023/08/01 16:45:23;;;;;;;2.63;1.83;;;23.10;99.90;;;;;;5004084;28;20533;-62
2023/08/01 16:47:50;;;;;;;4.60;1.70;;;22.80;99.90;;;;;;5005275;28;20207;-62
2023/08/01 16:50:19;;;;;;;1.88;1.67;;;22.60;99.90;;;;;;5008254;28;20319;-62
2023/08/01 16:52:47;;;;;;;4.78;2.20;;;22.70;99.90;;;;;;5005816;28;20197;-62
2023/08/01 16:55:15;;;;;;;3.95;2.63;;;22.60;99.90;;;;;;4988345;28;20554;-62
2023/08/01 16:57:43;;;;;;;8.18;3.47;;;22.60;99.90;;;;;;5010108;28;20208;-62
2023/08/01 17:00:11;;;;;;;5.20;2.83;;;22.50;99.90;;;;;;5012516;28;20804;-62
2023/08/01 17:02:38;;;;;;;3.63;2.50;;;22.60;99.90;;;;;;5012962;28;20243;-62
2023/08/01 17:05:06;;;;;;;3.30;2.10;;;22.40;99.90;;;;;;5011300;28;20316;-62
2023/08/01 17:07:34;;;;;;;6.15;2.05;;;22.40;99.90;;;;;;5006505;28;20615;-62
2023/08/01 17:10:03;;;;;;;3.22;1.83;;;22.40;99.90;;;;;;5008692;28;20251;-62
2023/08/01 17:12:30;;;;;;;2.55;1.83;;;22.50;99.90;;;;;;4992889;28;20200;-62
2023/08/01 17:14:59;;;;;;;2.60;1.70;;;22.40;99.90;;;;;;5010364;28;20220;-61
2023/08/01 17:17:26;;;;;;;2.20;1.95;;;22.30;99.90;;;;;;5007294;28;20710;-61
2023/08/01 17:19:55;;;;;;;2.85;1.80;;;22.30;99.90;;;;;;5012295;28;20196;-61
2023/08/01 17:22:23;;;;;;;2.33;1.92;;;22.30;99.90;;;;;;4992879;28;20248;-62
2023/08/01 17:24:51;;;;;;;1.98;1.48;;;22.30;99.90;;;;;;5011976;28;20201;-62
2023/08/01 17:27:18;;;;;;;3.92;2.42;;;22.20;99.90;;;;;;5014022;28;22052;-62
2023/08/01 17:29:46;;;;;;;4.63;1.88;;;22.10;99.90;;;;;;4993605;28;20212;-62
2023/08/01 17:32:13;;;;;;;2.92;2.05;;;22.10;99.90;;;;;;5010361;28;20200;-62
2023/08/01 17:34:40;;;;;;;2.75;1.73;;;22.10;99.90;;;;;;5008179;28;20731;-62
2023/08/01 17:37:07;;;;;;;4.53;1.73;;;22.00;99.90;;;;;;4992437;28;20205;-61
2023/08/01 17:39:34;;;;;;;3.38;1.80;;;22.00;99.90;;;;;;5011226;28;20188;-61
2023/08/01 17:42:01;;;;;;;2.65;1.90;;;21.80;99.90;;;;;;5013372;28;20244;-65
2023/08/01 17:44:28;;;;;;;3.30;1.83;;;21.80;99.90;;;;;;4994028;28;20607;-65
2023/08/01 17:47:07;;;;;;;5.30;2.08;;;21.90;99.90;;;;;;5011294;28;20672;-65
2023/08/01 17:49:34;;;;;;;4.93;2.13;;;21.80;99.90;;;;;;5014257;28;20296;-65
2023/08/01 17:52:01;;;;;;;2.28;1.70;;;21.80;99.90;;;;;;4994244;28;20618;-65
2023/08/01 17:54:29;;;;;;;7.78;2.03;;;21.70;99.90;;;;;;4994564;28;20292;-64
2023/08/01 17:56:56;;;;;;;1.90;1.70;;;21.60;99.90;;;;;;5013476;28;20204;-65
2023/08/01 17:59:23;;;;;;;1.80;1.58;;;21.40;99.90;;;;;;5011945;28;20217;-65
2023/08/01 18:01:52;;;;;;;3.97;1.77;;;21.30;99.90;;;;;;5009686;28;20221;-65
2023/08/01 18:04:20;;;;;;;4.95;1.80;;;21.30;99.90;;;;;;5012008;28;20231;-65
2023/08/01 18:06:48;;;;;;;2.10;1.60;;;21.30;99.90;;;;;;5006335;28;20197;-65
2023/08/01 18:09:18;;;;;;;4.53;1.75;;;21.30;99.90;;;;;;5003129;28;20208;-65
2023/08/01 18:11:45;;;;;;;2.78;1.42;;;21.20;99.90;;;;;;5008972;28;20876;-65
2023/08/01 18:14:13;;;;;;;1.60;1.50;;;21.30;99.90;;;;;;4984930;28;20215;-68
2023/08/01 18:16:40;;;;;;;4.43;1.92;;;21.40;99.90;;;;;;4992731;28;20246;-65
2023/08/01 18:19:08;;;;;;;1.58;1.48;;;21.30;99.90;;;;;;5005599;28;20719;-65
2023/08/01 18:21:35;;;;;;;5.13;2.03;;;21.20;99.90;;;;;;4998531;28;20332;-64
2023/08/01 18:24:02;;;;;;;3.15;1.67;;;21.10;99.90;;;;;;5003860;28;20638;-64
2023/08/01 18:26:29;;;;;;;2.15;1.95;;;21.10;99.90;;;;;;5004362;28;20613;-64
2023/08/01 18:28:56;;;;;;;3.72;2.00;;;21.10;99.90;;;;;;5003188;28;20300;-65
2023/08/01 18:31:23;;;;;;;4.03;1.83;;;21.00;99.90;;;;;;5006817;28;20639;-65
2023/08/01 18:33:51;;;;;;;4.38;1.70;;;21.00;99.90;;;;;;5005162;28;20571;-65
2023/08/01 18:36:20;;;;;;;2.78;1.50;;;21.00;99.90;;;;;;4988356;28;20224;-65
2023/08/01 18:38:48;;;;;;;4.65;2.30;;;21.10;99.90;;;;;;5004998;28;20209;-64
2023/08/01 18:41:17;;;;;;;8.02;2.30;;;20.90;99.90;;;;;;4988614;28;21421;-65
2023/08/01 18:43:44;;;;;;;4.80;2.08;;;20.70;99.90;;;;;;4988309;28;20228;-65
2023/08/01 18:46:14;;;;;;;4.05;2.35;;;20.60;99.90;;;;;;5004315;28;20679;-65
2023/08/01 18:48:42;;;;;;;5.18;3.33;;;20.40;99.90;;;;;;5009346;28;20651;-65
2023/08/01 18:51:11;;;;;;;9.18;3.08;;;20.30;99.90;;;;;;5005076;28;20682;-65
2023/08/01 18:53:38;;;;;;;5.57;3.05;;;20.10;99.90;;;;;;4984075;28;20231;-65
2023/08/01 18:56:10;;;;;;;3.03;2.17;;;20.00;99.90;;;;;;5009076;28;20235;-64
2023/08/01 18:58:40;;;;;;;2.22;1.98;;;19.90;99.90;;;;;;4990319;28;20193;-65
2023/08/01 19:01:22;;;;;;;3.85;2.40;;;19.80;99.90;;;;;;4992953;28;20219;-64
2023/08/01 19:03:52;;;;;;;6.47;2.35;;;19.70;99.90;;;;;;4974015;28;20227;-65
2023/08/01 19:06:22;;;;;;;4.32;2.80;;;19.60;99.90;;;;;;4991498;28;20742;-65
2023/08/01 19:08:50;;;;;;;5.93;3.05;;;19.60;99.90;;;;;;4988797;28;20193;-64
2023/08/01 19:11:29;;;;;;;6.25;2.72;;;19.60;99.90;;;;;;5006749;28;20208;-65
2023/08/01 19:13:56;;;;;;;3.60;2.40;;;19.50;99.90;;;;;;5005935;28;20208;-65
2023/08/01 19:16:23;;;;;;;5.20;2.55;;;19.50;99.90;;;;;;4991200;28;20564;-68
2023/08/01 19:18:51;;;;;;;3.03;2.72;;;19.40;99.90;;;;;;4993890;28;20208;-68
2023/08/01 19:21:18;;;;;;;4.97;3.10;;;19.30;99.90;;;;;;5005316;28;20259;-68
2023/08/01 19:23:45;;;;;;;3.17;1.85;;;19.20;99.90;;;;;;4989752;28;20617;-68
2023/08/01 19:26:13;;;;;;;2.85;1.88;;;19.20;99.90;;;;;;4986534;28;20201;-67
2023/08/01 19:28:40;;;;;;;4.82;1.98;;;19.20;99.90;;;;;;4988783;28;20223;-65
2023/08/01 19:31:09;;;;;;;3.47;2.33;;;19.10;99.90;;;;;;5004271;28;20204;-64
2023/08/01 19:33:37;;;;;;;3.03;2.58;;;19.10;99.90;;;;;;4999823;28;20676;-65
2023/08/01 19:36:05;;;;;;;6.80;2.85;;;19.10;99.90;;;;;;5005216;28;20197;-65
2023/08/01 19:38:32;;;;;;;5.32;2.53;;;19.00;99.90;;;;;;5004502;28;20280;-65
2023/08/01 19:41:00;;;;;;;4.70;2.15;;;19.00;99.90;;;;;;4985865;28;20232;-71
2023/08/01 19:43:28;;;;;;;4.93;2.28;;;18.90;99.90;;;;;;5002506;28;20189;-65
2023/08/01 19:45:57;;;;;;;5.47;1.95;;;18.90;99.90;;;;;;4988162;28;20207;-65
2023/08/01 19:48:25;;;;;;;7.22;2.00;;;18.80;99.90;;;;;;4984019;28;20607;-65
2023/08/01 19:50:54;;;;;;;3.30;1.50;;;18.70;99.90;;;;;;4988607;28;20549;-66
2023/08/01 19:53:23;;;;;;;2.85;2.17;;;18.50;99.90;;;;;;5002954;28;20204;-63
2023/08/01 19:55:52;;;;;;;4.72;1.85;;;18.50;99.90;;;;;;5003475;28;20576;-64
2023/08/01 19:58:19;;;;;;;3.78;1.90;;;18.40;99.90;;;;;;5001428;28;20216;-65
2023/08/01 20:00:48;;;;;;;4.00;1.75;;;18.40;99.90;;;;;;4983900;28;20205;-64
2023/08/01 20:03:21;;;;;;;3.05;1.63;;;18.40;99.90;;;;;;5003882;28;20320;-65
2023/08/01 20:05:49;;;;;;;2.17;1.60;;;18.40;99.90;;;;;;5001100;28;20209;-64
2023/08/01 20:08:16;;;;;;;5.05;1.70;;;18.40;99.90;;;;;;4999051;28;20284;-65
2023/08/01 20:10:43;;;;;;;3.95;1.65;;;18.30;99.90;;;;;;4985068;28;20578;-64
2023/08/01 20:13:10;;;;;;;4.50;1.80;;;18.30;99.90;;;;;;5005438;28;20703;-64
2023/08/01 20:15:38;;;;;;;4.03;1.60;;;18.20;99.90;;;;;;4988869;28;20207;-64
2023/08/01 20:18:05;;;;;;;2.53;1.38;;;18.10;99.90;;;;;;5008385;28;20219;-65
2023/08/01 20:20:35;;;;;;;3.35;1.88;;;18.00;99.90;;;;;;5002963;28;20197;-67
2023/08/01 20:23:06;;;;;;;5.75;1.80;;;17.90;99.90;;;;;;4972087;28;20247;-69
2023/08/01 20:25:47;;;;;;;2.60;2.03;;;17.90;99.90;;;;;;4989215;28;20311;-65
2023/08/01 20:28:17;;;;;;;2.33;1.55;;;18.00;99.90;;;;;;4985703;28;20192;-64
2023/08/01 20:30:48;;;;;;;4.55;1.70;;;18.00;99.90;;;;;;5005123;28;20545;-67
2023/08/01 20:33:24;;;;;;;6.20;1.70;;;18.00;99.90;;;;;;4985676;28;20204;-65
2023/08/01 20:35:57;;;;;;;3.45;1.88;;;18.00;99.90;;;;;;4984615;28;20227;-65
2023/08/01 20:38:25;;;;;;;3.08;1.60;;;18.10;99.90;;;;;;5004999;28;20258;-64
2023/08/01 20:40:52;;;;;;;4.30;2.00;;;18.10;99.90;;;;;;4984093;28;20201;-64
2023/08/01 20:43:25;;;;;;;3.65;1.85;;;18.10;99.90;;;;;;4985707;28;20254;-67
2023/08/01 20:45:55;;;;;;;5.03;1.70;;;18.10;99.90;;;;;;5005053;28;20216;-65
2023/08/01 20:48:23;;;;;;;4.93;1.70;;;18.10;99.90;;;;;;5006045;28;20541;-64
2023/08/01 20:50:50;;;;;;;3.13;1.75;;;18.10;99.90;;;;;;4987746;28;20208;-64
2023/08/01 20:53:17;;;;;;;6.05;1.60;;;18.10;99.90;;;;;;5005677;28;20209;-65
2023/08/01 20:55:44;;;;;;;3.85;1.83;;;18.10;99.90;;;;;;4969265;28;20205;-65
2023/08/01 20:58:11;;;;;;;5.22;1.63;;;18.10;99.90;;;;;;5006459;28;20266;-66
2023/08/01 21:00:38;;;;;;;2.80;1.63;;;18.10;99.90;;;;;;4988475;28;20201;-64
2023/08/01 21:03:05;;;;;;;6.20;2.05;;;18.10;99.90;;;;;;4987711;28;20262;-64
2023/08/01 21:05:35;;;;;;;3.25;2.30;;;18.10;99.90;;;;;;5006978;28;20215;-65
2023/08/01 21:08:04;;;;;;;3.13;2.05;;;18.10;99.90;;;;;;5004398;28;20727;-64
2023/08/01 21:10:31;;;;;;;3.90;1.60;;;18.10;99.90;;;;;;5004668;28;20223;-64
2023/08/01 21:12:58;;;;;;;2.22;1.83;;;18.00;99.90;;;;;;5003590;28;20200;-65
2023/08/01 21:15:27;;;;;;;3.25;1.85;;;17.90;99.90;;;;;;5002804;28;20657;-65
2023/08/01 21:17:57;;;;;;;6.65;1.80;;;17.90;99.90;;;;;;5007018;28;20283;-65
2023/08/01 21:20:24;;;;;;;3.78;2.00;;;17.90;99.90;;;;;;4984035;28;20651;-65
2023/08/01 21:22:50;;;;;;;6.57;2.00;;;17.80;99.90;;;;;;5005682;28;20300;-62
2023/08/01 21:25:18;;;;;;;3.90;1.77;;;17.80;99.90;;;;;;5008751;28;20189;-66
2023/08/01 21:27:45;;;;;;;3.60;1.83;;;17.80;99.90;;;;;;5006345;28;20192;-62
2023/08/01 21:30:13;;;;;;;6.15;1.80;;;17.80;99.90;;;;;;5004746;28;20683;-61
2023/08/01 21:32:40;;;;;;;3.47;1.85;;;17.80;99.90;;;;;;5006319;28;20258;-61
2023/08/01 21:35:07;;;;;;;2.13;1.92;;;17.80;99.90;;;;;;5004933;28;20283;-60
2023/08/01 21:37:34;;;;;;;5.38;2.45;;;17.80;99.90;;;;;;5001742;28;20668;-60
2023/08/01 21:40:02;;;;;;;2.90;1.85;;;17.80;99.90;;;;;;5013331;28;20201;-60
2023/08/01 21:42:29;;;;;;;4.15;2.00;;;17.80;99.90;;;;;;4993853;28;20316;-60
2023/08/01 21:44:56;;;;;;;7.88;2.72;;;17.80;99.90;;;;;;5006483;28;20720;-59
2023/08/01 21:47:23;;;;;;;2.80;1.70;;;17.70;99.90;;;;;;4994876;28;20209;-60
2023/08/01 21:49:50;;;;;;;4.32;1.83;;;17.70;99.90;;;;;;4997632;28;20254;-60
2023/08/01 21:52:17;;;;;;;2.55;1.50;;;17.70;99.90;;;;;;5014529;28;20641;-59
2023/08/01 21:54:44;;;;;;;5.18;1.83;;;17.70;99.90;;;;;;4988781;28;20205;-59
2023/08/01 21:57:11;;;;;;;3.72;1.75;;;17.70;99.90;;;;;;4998197;28;20197;-59
2023/08/01 21:59:37;;;;;;;3.85;2.05;;;17.70;99.90;;;;;;4992031;28;20665;-59
2023/08/01 22:02:05;;;;;;;6.32;1.80;;;17.70;99.90;;;;;;5013687;28;20263;-61
2023/08/01 22:04:32;;;;;;;2.53;1.73;;;17.60;99.90;;;;;;5011119;28;20695;-59
2023/08/01 22:06:59;;;;;;;3.88;1.80;;;17.60;99.90;;;;;;4994748;28;20187;-60
2023/08/01 22:09:26;;;;;;;4.75;1.60;;;17.60;99.90;;;;;;4999422;28;20196;-59
2023/08/01 22:11:52;;;;;;;4.13;1.95;;;17.60;99.90;;;;;;5009753;28;20680;-59
2023/08/01 22:14:20;;;;;;;4.03;2.03;;;17.60;99.90;;;;;;4992903;28;20205;-59
2023/08/01 22:16:47;;;;;;;3.85;1.98;;;17.60;99.90;;;;;;5016684;28;20193;-58
2023/08/01 22:19:13;;;;;;;4.93;1.90;;;17.60;99.90;;;;;;5012151;28;20200;-59
2023/08/01 22:21:40;;;;;;;4.35;1.88;;;17.50;99.90;;;;;;4993911;28;20669;-60
2023/08/01 22:24:08;;;;;;;2.95;1.50;;;17.60;99.90;;;;;;5014614;28;20189;-60
2023/08/01 22:26:35;;;;;;;2.60;1.95;;;17.50;99.90;;;;;;5008257;28;20197;-58
2023/08/01 22:29:03;;;;;;;5.30;1.90;;;17.50;99.90;;;;;;5016440;28;20247;-58
2023/08/01 22:31:33;;;;;;;4.68;1.60;;;17.40;99.90;;;;;;4990110;28;20201;-59
2023/08/01 22:33:59;;;;;;;3.88;1.30;;;17.30;99.90;;;;;;5006886;28;20200;-60
2023/08/01 22:36:26;;;;;;;4.45;2.05;;;17.30;99.90;;;;;;5013096;28;20672;-61
2023/08/01 22:38:53;;;;;;;6.40;1.85;;;17.30;99.90;;;;;;5011939;28;20691;-60
2023/08/01 22:41:20;;;;;;;3.47;2.40;;;17.30;99.90;;;;;;5013410;28;20275;-60
2023/08/01 22:43:52;;;;;;;2.45;1.70;;;17.20;99.90;;;;;;5012012;28;20209;-61